SJV983 WADD-WAAA
Flight info
| Callsign | SJV983 |
|---|---|
| Flight time | 1h 4m |
| Altitude | 33000 |
| Route | PEDET W41 LIPOT |
| Aircraft | A320/M-SDE3FGHIRWY/LB1 |
Departure
| Time | 2026-04-26 09:07 |
|---|---|
| Airport | Denpasar I Gusti Ngurah Rai International Airport (WADD) |
Arrival
| Time | 2026-04-26 10:11 |
|---|---|
| Airport | Sultan Hasanuddin International Airport (WAAA) |
| Time | Latitude | Longitude | Altitude | Speed | Heading |
|---|---|---|---|---|---|
| 2026-04-26 08:45 | -8.74524 | 115.17205 | 33 ft | 0 kts | 358° |
| 2026-04-26 08:57 | -8.74532 | 115.17206 | 33 ft | 2 kts | 357° |
| 2026-04-26 08:57 | -8.74548 | 115.17206 | 31 ft | 2 kts | 358° |
| 2026-04-26 08:57 | -8.74565 | 115.17207 | 32 ft | 2 kts | 358° |
| 2026-04-26 08:57 | -8.74581 | 115.17208 | 32 ft | 2 kts | 358° |
| 2026-04-26 08:58 | -8.74598 | 115.17208 | 29 ft | 2 kts | 358° |
| 2026-04-26 08:58 | -8.74614 | 115.17209 | 31 ft | 2 kts | 359° |
| 2026-04-26 08:58 | -8.74631 | 115.17209 | 30 ft | 2 kts | 345° |
| 2026-04-26 08:58 | -8.74646 | 115.17216 | 32 ft | 2 kts | 317° |
| 2026-04-26 08:59 | -8.74656 | 115.17230 | 29 ft | 2 kts | 285° |
| 2026-04-26 08:59 | -8.74657 | 115.17237 | 30 ft | 0 kts | 271° |
| 2026-04-26 09:00 | -8.74657 | 115.17235 | 30 ft | 1 kts | 272° |
| 2026-04-26 09:00 | -8.74660 | 115.17177 | 32 ft | 12 kts | 265° |
| 2026-04-26 09:01 | -8.74663 | 115.17105 | 32 ft | 18 kts | 268° |
| 2026-04-26 09:01 | -8.74668 | 115.16964 | 31 ft | 5 kts | 268° |
| 2026-04-26 09:01 | -8.74669 | 115.16917 | 32 ft | 8 kts | 268° |
| 2026-04-26 09:01 | -8.74672 | 115.16850 | 32 ft | 11 kts | 267° |
| 2026-04-26 09:02 | -8.74676 | 115.16795 | 32 ft | 12 kts | 268° |
| 2026-04-26 09:02 | -8.74680 | 115.16699 | 32 ft | 15 kts | 267° |
| 2026-04-26 09:02 | -8.74687 | 115.16549 | 32 ft | 18 kts | 268° |
| 2026-04-26 09:02 | -8.74690 | 115.16462 | 32 ft | 19 kts | 268° |
| 2026-04-26 09:03 | -8.74696 | 115.16324 | 32 ft | 21 kts | 268° |
| 2026-04-26 09:03 | -8.74702 | 115.16175 | 32 ft | 22 kts | 267° |
| 2026-04-26 09:03 | -8.74708 | 115.16015 | 32 ft | 24 kts | 267° |
| 2026-04-26 09:03 | -8.74715 | 115.15843 | 32 ft | 25 kts | 268° |
| 2026-04-26 09:04 | -8.74723 | 115.15662 | 32 ft | 26 kts | 268° |
| 2026-04-26 09:04 | -8.74728 | 115.15526 | 32 ft | 6 kts | 268° |
| 2026-04-26 09:04 | -8.74730 | 115.15469 | 32 ft | 9 kts | 268° |
| 2026-04-26 09:04 | -8.74752 | 115.15401 | 32 ft | 11 kts | 225° |
| 2026-04-26 09:05 | -8.74824 | 115.15392 | 29 ft | 11 kts | 180° |
| 2026-04-26 09:05 | -8.74887 | 115.15395 | 28 ft | 8 kts | 161° |
| 2026-04-26 09:05 | -8.74896 | 115.15428 | 28 ft | 1 kts | 89° |
| 2026-04-26 09:05 | -8.74896 | 115.15443 | 28 ft | 3 kts | 89° |
| 2026-04-26 09:06 | -8.74893 | 115.15540 | 28 ft | 38 kts | 88° |
| 2026-04-26 09:06 | -8.74871 | 115.16048 | 29 ft | 104 kts | 88° |
| 2026-04-26 09:06 | -8.74836 | 115.16956 | 29 ft | 153 kts | 89° |
| 2026-04-26 09:06 | -8.74795 | 115.18077 | 463 ft | 159 kts | 89° |
| 2026-04-26 09:07 | -8.74749 | 115.19208 | 983 ft | 165 kts | 89° |
| 2026-04-26 09:07 | -8.74701 | 115.20357 | 1630 ft | 162 kts | 89° |
| 2026-04-26 09:07 | -8.74652 | 115.21542 | 2094 ft | 179 kts | 88° |
| 2026-04-26 09:07 | -8.74598 | 115.22864 | 2510 ft | 197 kts | 88° |
| 2026-04-26 09:08 | -8.74540 | 115.24320 | 2885 ft | 217 kts | 88° |
| 2026-04-26 09:08 | -8.74474 | 115.25932 | 3258 ft | 238 kts | 88° |
| 2026-04-26 09:08 | -8.74404 | 115.27616 | 4059 ft | 240 kts | 88° |
| 2026-04-26 09:08 | -8.74335 | 115.29290 | 4862 ft | 244 kts | 88° |
| 2026-04-26 09:09 | -8.74264 | 115.31007 | 5682 ft | 245 kts | 88° |
| 2026-04-26 09:09 | -8.74192 | 115.32738 | 6476 ft | 247 kts | 88° |
| 2026-04-26 09:09 | -8.74055 | 115.34479 | 7207 ft | 250 kts | 76° |
| 2026-04-26 09:09 | -8.73254 | 115.36044 | 7900 ft | 255 kts | 51° |
| 2026-04-26 09:10 | -8.72033 | 115.37362 | 8651 ft | 257 kts | 46° |
| 2026-04-26 09:10 | -8.70766 | 115.38613 | 9384 ft | 259 kts | 46° |
| 2026-04-26 09:10 | -8.69473 | 115.39895 | 10058 ft | 262 kts | 46° |
| 2026-04-26 09:10 | -8.68180 | 115.41208 | 10709 ft | 265 kts | 47° |
| 2026-04-26 09:11 | -8.66889 | 115.42549 | 11363 ft | 267 kts | 47° |
| 2026-04-26 09:11 | -8.65593 | 115.43910 | 12012 ft | 270 kts | 48° |
| 2026-04-26 09:11 | -8.64286 | 115.45289 | 12674 ft | 273 kts | 48° |
| 2026-04-26 09:11 | -8.62970 | 115.46679 | 13307 ft | 275 kts | 48° |
| 2026-04-26 09:12 | -8.61637 | 115.48086 | 13910 ft | 278 kts | 48° |
| 2026-04-26 09:12 | -8.60293 | 115.49505 | 14469 ft | 281 kts | 48° |
| 2026-04-26 09:12 | -8.58934 | 115.50939 | 15035 ft | 283 kts | 48° |
| 2026-04-26 09:12 | -8.57585 | 115.52361 | 15588 ft | 285 kts | 48° |
| 2026-04-26 09:13 | -8.56207 | 115.53815 | 16131 ft | 288 kts | 48° |
| 2026-04-26 09:13 | -8.54816 | 115.55282 | 16675 ft | 290 kts | 48° |
| 2026-04-26 09:13 | -8.53416 | 115.56759 | 17201 ft | 293 kts | 48° |
| 2026-04-26 09:13 | -8.51998 | 115.58255 | 17734 ft | 295 kts | 48° |
| 2026-04-26 09:14 | -8.50571 | 115.59759 | 18229 ft | 298 kts | 48° |
| 2026-04-26 09:14 | -8.49128 | 115.61280 | 18657 ft | 301 kts | 48° |
| 2026-04-26 09:14 | -8.47673 | 115.62814 | 19105 ft | 303 kts | 48° |
| 2026-04-26 09:14 | -8.46205 | 115.64360 | 19541 ft | 306 kts | 48° |
| 2026-04-26 09:15 | -8.44727 | 115.65918 | 19967 ft | 308 kts | 48° |
| 2026-04-26 09:15 | -8.43237 | 115.67488 | 20403 ft | 310 kts | 48° |
| 2026-04-26 09:15 | -8.41736 | 115.69069 | 20816 ft | 313 kts | 48° |
| 2026-04-26 09:15 | -8.40235 | 115.70650 | 21219 ft | 317 kts | 48° |
| 2026-04-26 09:16 | -8.38707 | 115.72259 | 21631 ft | 319 kts | 48° |
| 2026-04-26 09:16 | -8.37163 | 115.73885 | 22028 ft | 322 kts | 48° |
| 2026-04-26 09:16 | -8.35597 | 115.75535 | 22409 ft | 326 kts | 48° |
| 2026-04-26 09:16 | -8.34024 | 115.77190 | 22811 ft | 328 kts | 48° |
| 2026-04-26 09:17 | -8.32438 | 115.78860 | 23174 ft | 331 kts | 48° |
| 2026-04-26 09:17 | -8.30833 | 115.80549 | 23536 ft | 334 kts | 48° |
| 2026-04-26 09:17 | -8.29223 | 115.82244 | 23878 ft | 335 kts | 48° |
| 2026-04-26 09:17 | -8.27601 | 115.83949 | 24184 ft | 338 kts | 47° |
| 2026-04-26 09:18 | -8.25972 | 115.85664 | 24519 ft | 339 kts | 47° |
| 2026-04-26 09:18 | -8.24332 | 115.87389 | 24847 ft | 341 kts | 47° |
| 2026-04-26 09:18 | -8.22683 | 115.89124 | 25158 ft | 343 kts | 47° |
| 2026-04-26 09:18 | -8.21023 | 115.90869 | 25460 ft | 346 kts | 47° |
| 2026-04-26 09:19 | -8.19371 | 115.92607 | 25766 ft | 347 kts | 47° |
| 2026-04-26 09:19 | -8.17696 | 115.94367 | 26068 ft | 349 kts | 47° |
| 2026-04-26 09:19 | -8.16007 | 115.96143 | 26368 ft | 351 kts | 47° |
| 2026-04-26 09:19 | -8.14309 | 115.97928 | 26648 ft | 354 kts | 47° |
| 2026-04-26 09:20 | -8.12597 | 115.99727 | 26949 ft | 355 kts | 47° |
| 2026-04-26 09:20 | -8.10882 | 116.01530 | 27239 ft | 357 kts | 47° |
| 2026-04-26 09:20 | -8.09154 | 116.03345 | 27496 ft | 360 kts | 47° |
| 2026-04-26 09:20 | -8.07417 | 116.05169 | 27778 ft | 361 kts | 47° |
| 2026-04-26 09:21 | -8.05672 | 116.07002 | 28062 ft | 363 kts | 47° |
| 2026-04-26 09:21 | -8.03915 | 116.08847 | 28331 ft | 365 kts | 47° |
| 2026-04-26 09:21 | -8.02150 | 116.10701 | 28584 ft | 367 kts | 47° |
| 2026-04-26 09:21 | -8.00397 | 116.12541 | 28831 ft | 369 kts | 47° |
| 2026-04-26 09:22 | -7.98615 | 116.14412 | 29098 ft | 370 kts | 47° |
| 2026-04-26 09:22 | -7.96826 | 116.16290 | 29353 ft | 372 kts | 47° |
| 2026-04-26 09:22 | -7.95024 | 116.18181 | 29585 ft | 375 kts | 47° |
| 2026-04-26 09:22 | -7.93210 | 116.20085 | 29840 ft | 377 kts | 47° |
| 2026-04-26 09:23 | -7.91387 | 116.21997 | 30070 ft | 378 kts | 47° |
| 2026-04-26 09:23 | -7.89562 | 116.23911 | 30297 ft | 379 kts | 47° |
| 2026-04-26 09:23 | -7.87723 | 116.25840 | 30542 ft | 381 kts | 47° |
| 2026-04-26 09:23 | -7.85905 | 116.27746 | 30733 ft | 383 kts | 47° |
| 2026-04-26 09:24 | -7.84053 | 116.29688 | 30953 ft | 385 kts | 47° |
| 2026-04-26 09:24 | -7.82190 | 116.31642 | 31188 ft | 386 kts | 47° |
| 2026-04-26 09:24 | -7.80330 | 116.33592 | 31415 ft | 387 kts | 47° |
| 2026-04-26 09:24 | -7.78452 | 116.35561 | 31636 ft | 389 kts | 47° |
| 2026-04-26 09:25 | -7.76568 | 116.37535 | 31813 ft | 391 kts | 47° |
| 2026-04-26 09:25 | -7.74675 | 116.39518 | 32024 ft | 392 kts | 47° |
| 2026-04-26 09:25 | -7.72799 | 116.41484 | 32243 ft | 393 kts | 47° |
| 2026-04-26 09:25 | -7.70895 | 116.43479 | 32440 ft | 394 kts | 47° |
| 2026-04-26 09:26 | -7.68989 | 116.45475 | 32658 ft | 396 kts | 47° |
| 2026-04-26 09:26 | -7.67076 | 116.47479 | 32822 ft | 398 kts | 47° |
| 2026-04-26 09:26 | -7.65139 | 116.49507 | 32836 ft | 405 kts | 47° |
| 2026-04-26 09:27 | -7.61168 | 116.53666 | 32833 ft | 418 kts | 47° |
| 2026-04-26 09:27 | -7.57089 | 116.57935 | 32834 ft | 431 kts | 47° |
| 2026-04-26 09:28 | -7.52862 | 116.62358 | 32831 ft | 444 kts | 47° |
| 2026-04-26 09:28 | -7.48689 | 116.67065 | 32832 ft | 456 kts | 51° |
| 2026-04-26 09:29 | -7.44566 | 116.71995 | 32831 ft | 460 kts | 51° |
| 2026-04-26 09:29 | -7.40462 | 116.76891 | 32835 ft | 459 kts | 51° |
| 2026-04-26 09:30 | -7.36334 | 116.81814 | 32835 ft | 460 kts | 51° |
| 2026-04-26 09:30 | -7.32205 | 116.86736 | 32833 ft | 459 kts | 51° |
| 2026-04-26 09:31 | -7.28072 | 116.91663 | 32837 ft | 460 kts | 51° |
| 2026-04-26 09:31 | -7.23966 | 116.96556 | 32834 ft | 460 kts | 51° |
| 2026-04-26 09:32 | -7.19831 | 117.01481 | 32839 ft | 460 kts | 51° |
| 2026-04-26 09:32 | -7.15696 | 117.06405 | 32841 ft | 460 kts | 51° |
| 2026-04-26 09:33 | -7.11582 | 117.11302 | 32840 ft | 459 kts | 51° |
| 2026-04-26 09:33 | -7.07451 | 117.16218 | 32841 ft | 459 kts | 50° |
| 2026-04-26 09:34 | -7.03323 | 117.21129 | 32835 ft | 459 kts | 50° |
| 2026-04-26 09:34 | -6.99202 | 117.26030 | 32835 ft | 458 kts | 50° |
| 2026-04-26 09:35 | -6.95083 | 117.30928 | 32835 ft | 458 kts | 50° |
| 2026-04-26 09:35 | -6.90992 | 117.35791 | 32835 ft | 458 kts | 50° |
| 2026-04-26 09:36 | -6.86876 | 117.40681 | 32832 ft | 457 kts | 50° |
| 2026-04-26 09:36 | -6.82765 | 117.45565 | 32832 ft | 457 kts | 50° |
| 2026-04-26 09:37 | -6.78651 | 117.50451 | 32835 ft | 456 kts | 50° |
| 2026-04-26 09:37 | -6.74572 | 117.55293 | 32835 ft | 456 kts | 50° |
| 2026-04-26 09:38 | -6.70469 | 117.60164 | 32829 ft | 456 kts | 50° |
| 2026-04-26 09:38 | -6.66061 | 117.64746 | 32831 ft | 457 kts | 41° |
| 2026-04-26 09:39 | -6.61203 | 117.68883 | 32828 ft | 456 kts | 41° |
| 2026-04-26 09:39 | -6.56395 | 117.73004 | 32831 ft | 456 kts | 41° |
| 2026-04-26 09:40 | -6.51557 | 117.77149 | 32833 ft | 456 kts | 41° |
| 2026-04-26 09:40 | -6.46721 | 117.81290 | 32833 ft | 456 kts | 41° |
| 2026-04-26 09:41 | -6.41884 | 117.85430 | 32835 ft | 456 kts | 41° |
| 2026-04-26 09:41 | -6.37045 | 117.89571 | 32832 ft | 456 kts | 41° |
| 2026-04-26 09:42 | -6.32237 | 117.93684 | 32834 ft | 456 kts | 41° |
| 2026-04-26 09:42 | -6.27399 | 117.97822 | 32834 ft | 456 kts | 41° |
| 2026-04-26 09:43 | -6.22554 | 118.01963 | 32835 ft | 456 kts | 41° |
| 2026-04-26 09:43 | -6.17750 | 118.06070 | 32837 ft | 456 kts | 41° |
| 2026-04-26 09:44 | -6.12908 | 118.10208 | 32834 ft | 456 kts | 41° |
| 2026-04-26 09:44 | -6.08074 | 118.14338 | 32835 ft | 456 kts | 41° |
| 2026-04-26 09:45 | -6.03265 | 118.18445 | 32836 ft | 456 kts | 41° |
| 2026-04-26 09:45 | -5.98433 | 118.22571 | 32832 ft | 456 kts | 41° |
| 2026-04-26 09:46 | -5.93602 | 118.26695 | 32835 ft | 455 kts | 41° |
| 2026-04-26 09:46 | -5.88765 | 118.30824 | 32832 ft | 455 kts | 41° |
| 2026-04-26 09:47 | -5.83965 | 118.34920 | 32789 ft | 456 kts | 41° |
| 2026-04-26 09:47 | -5.81545 | 118.36985 | 32558 ft | 456 kts | 41° |
| 2026-04-26 09:47 | -5.79122 | 118.39052 | 32315 ft | 456 kts | 41° |
| 2026-04-26 09:47 | -5.76692 | 118.41125 | 32073 ft | 457 kts | 41° |
| 2026-04-26 09:48 | -5.74267 | 118.43194 | 31834 ft | 458 kts | 41° |
| 2026-04-26 09:48 | -5.71831 | 118.45271 | 31596 ft | 459 kts | 41° |
| 2026-04-26 09:48 | -5.69393 | 118.47350 | 31361 ft | 460 kts | 41° |
| 2026-04-26 09:48 | -5.66954 | 118.49430 | 31127 ft | 461 kts | 41° |
| 2026-04-26 09:49 | -5.64625 | 118.51638 | 30897 ft | 461 kts | 48° |
| 2026-04-26 09:49 | -5.62470 | 118.53976 | 30669 ft | 462 kts | 48° |
| 2026-04-26 09:49 | -5.60283 | 118.56340 | 30443 ft | 461 kts | 48° |
| 2026-04-26 09:49 | -5.58097 | 118.58697 | 30218 ft | 460 kts | 48° |
| 2026-04-26 09:50 | -5.55915 | 118.61047 | 29994 ft | 458 kts | 48° |
| 2026-04-26 09:50 | -5.53743 | 118.63386 | 29748 ft | 457 kts | 48° |
| 2026-04-26 09:50 | -5.51573 | 118.65723 | 29240 ft | 457 kts | 48° |
| 2026-04-26 09:50 | -5.49407 | 118.68056 | 28645 ft | 455 kts | 48° |
| 2026-04-26 09:51 | -5.47280 | 118.70347 | 28060 ft | 451 kts | 48° |
| 2026-04-26 09:51 | -5.45147 | 118.72643 | 27480 ft | 447 kts | 48° |
| 2026-04-26 09:51 | -5.42955 | 118.74835 | 26889 ft | 444 kts | 42° |
| 2026-04-26 09:51 | -5.40539 | 118.76752 | 26300 ft | 441 kts | 36° |
| 2026-04-26 09:52 | -5.37986 | 118.78462 | 25688 ft | 439 kts | 34° |
| 2026-04-26 09:52 | -5.32966 | 118.81835 | 24521 ft | 435 kts | 35° |
| 2026-04-26 09:52 | -5.30459 | 118.83525 | 23948 ft | 432 kts | 34° |
| 2026-04-26 09:53 | -5.28773 | 118.84660 | 23575 ft | 430 kts | 34° |
| 2026-04-26 09:53 | -5.26289 | 118.86334 | 22940 ft | 428 kts | 34° |
| 2026-04-26 09:53 | -5.23827 | 118.87991 | 22376 ft | 424 kts | 34° |
| 2026-04-26 09:53 | -5.21421 | 118.89609 | 21808 ft | 420 kts | 34° |
| 2026-04-26 09:54 | -5.19007 | 118.91234 | 21236 ft | 416 kts | 34° |
| 2026-04-26 09:54 | -5.16602 | 118.92844 | 20660 ft | 413 kts | 33° |
| 2026-04-26 09:54 | -5.14024 | 118.94100 | 20083 ft | 411 kts | 19° |
| 2026-04-26 09:54 | -5.11274 | 118.94732 | 19825 ft | 397 kts | 7° |
| 2026-04-26 09:55 | -5.08580 | 118.94822 | 19627 ft | 378 kts | 0° |
| 2026-04-26 09:55 | -5.05989 | 118.94816 | 19131 ft | 369 kts | 1° |
| 2026-04-26 09:55 | -5.03468 | 118.94821 | 18511 ft | 366 kts | 1° |
| 2026-04-26 09:55 | -5.00928 | 118.94826 | 17862 ft | 363 kts | 1° |
| 2026-04-26 09:56 | -4.98418 | 118.94830 | 17194 ft | 359 kts | 1° |
| 2026-04-26 09:56 | -4.95935 | 118.94832 | 16538 ft | 354 kts | 1° |
| 2026-04-26 09:56 | -4.93480 | 118.94832 | 15945 ft | 353 kts | 1° |
| 2026-04-26 09:56 | -4.91036 | 118.94833 | 15526 ft | 350 kts | 0° |
| 2026-04-26 09:57 | -4.88608 | 118.94833 | 15110 ft | 347 kts | 0° |
| 2026-04-26 09:57 | -4.86204 | 118.94832 | 14692 ft | 345 kts | 0° |
| 2026-04-26 09:57 | -4.83802 | 118.94832 | 14264 ft | 343 kts | 0° |
| 2026-04-26 09:57 | -4.81474 | 118.94843 | 13730 ft | 338 kts | 4° |
| 2026-04-26 09:58 | -4.79197 | 118.95367 | 13028 ft | 334 kts | 26° |
| 2026-04-26 09:58 | -4.77316 | 118.96696 | 12456 ft | 326 kts | 49° |
| 2026-04-26 09:58 | -4.76104 | 118.98537 | 12142 ft | 312 kts | 68° |
| 2026-04-26 09:58 | -4.75358 | 119.00552 | 11729 ft | 306 kts | 70° |
| 2026-04-26 09:59 | -4.74631 | 119.02588 | 11289 ft | 312 kts | 71° |
| 2026-04-26 09:59 | -4.73902 | 119.04631 | 10953 ft | 309 kts | 71° |
| 2026-04-26 09:59 | -4.73183 | 119.06642 | 10652 ft | 303 kts | 71° |
| 2026-04-26 09:59 | -4.72489 | 119.08579 | 10316 ft | 295 kts | 71° |
| 2026-04-26 10:00 | -4.71779 | 119.10561 | 10223 ft | 306 kts | 71° |
| 2026-04-26 10:00 | -4.71060 | 119.12564 | 10094 ft | 302 kts | 71° |
| 2026-04-26 10:00 | -4.70353 | 119.14536 | 9937 ft | 300 kts | 71° |
| 2026-04-26 10:00 | -4.69649 | 119.16494 | 9746 ft | 294 kts | 71° |
| 2026-04-26 10:01 | -4.68961 | 119.18417 | 9407 ft | 292 kts | 72° |
| 2026-04-26 10:01 | -4.68687 | 119.20410 | 8974 ft | 290 kts | 96° |
| 2026-04-26 10:01 | -4.69280 | 119.22322 | 8460 ft | 290 kts | 121° |
| 2026-04-26 10:01 | -4.70640 | 119.23791 | 7925 ft | 287 kts | 145° |
| 2026-04-26 10:02 | -4.72302 | 119.24875 | 7685 ft | 281 kts | 147° |
| 2026-04-26 10:02 | -4.73906 | 119.25898 | 7558 ft | 265 kts | 147° |
| 2026-04-26 10:02 | -4.75403 | 119.26863 | 7328 ft | 255 kts | 146° |
| 2026-04-26 10:02 | -4.76877 | 119.27826 | 6844 ft | 252 kts | 146° |
| 2026-04-26 10:03 | -4.78341 | 119.28791 | 6351 ft | 251 kts | 146° |
| 2026-04-26 10:03 | -4.79794 | 119.29754 | 5848 ft | 249 kts | 146° |
| 2026-04-26 10:03 | -4.81229 | 119.30706 | 5460 ft | 245 kts | 146° |
| 2026-04-26 10:03 | -4.82640 | 119.31643 | 5285 ft | 237 kts | 146° |
| 2026-04-26 10:04 | -4.83969 | 119.32525 | 5147 ft | 222 kts | 145° |
| 2026-04-26 10:04 | -4.85241 | 119.33370 | 4809 ft | 217 kts | 145° |
| 2026-04-26 10:04 | -4.86498 | 119.34206 | 4402 ft | 216 kts | 145° |
| 2026-04-26 10:04 | -4.87727 | 119.35024 | 4092 ft | 211 kts | 145° |
| 2026-04-26 10:05 | -4.88970 | 119.35851 | 4031 ft | 217 kts | 146° |
| 2026-04-26 10:05 | -4.90114 | 119.36730 | 4000 ft | 193 kts | 136° |
| 2026-04-26 10:05 | -4.90977 | 119.37623 | 3994 ft | 164 kts | 131° |
| 2026-04-26 10:05 | -4.91720 | 119.38453 | 3937 ft | 162 kts | 130° |
| 2026-04-26 10:06 | -4.92462 | 119.39314 | 3757 ft | 162 kts | 130° |
| 2026-04-26 10:06 | -4.93187 | 119.40166 | 3555 ft | 160 kts | 130° |
| 2026-04-26 10:06 | -4.93909 | 119.41013 | 3356 ft | 160 kts | 130° |
| 2026-04-26 10:06 | -4.94630 | 119.41859 | 3155 ft | 159 kts | 130° |
| 2026-04-26 10:07 | -4.95347 | 119.42701 | 2953 ft | 159 kts | 130° |
| 2026-04-26 10:07 | -4.96049 | 119.43523 | 2761 ft | 148 kts | 130° |
| 2026-04-26 10:07 | -4.96699 | 119.44286 | 2573 ft | 143 kts | 131° |
| 2026-04-26 10:07 | -4.97351 | 119.45051 | 2385 ft | 144 kts | 131° |
| 2026-04-26 10:08 | -4.98003 | 119.45815 | 2199 ft | 143 kts | 131° |
| 2026-04-26 10:08 | -4.98642 | 119.46565 | 2019 ft | 143 kts | 131° |
| 2026-04-26 10:08 | -4.99290 | 119.47325 | 1830 ft | 143 kts | 131° |
| 2026-04-26 10:08 | -4.99934 | 119.48081 | 1650 ft | 142 kts | 131° |
| 2026-04-26 10:09 | -5.00574 | 119.48831 | 1468 ft | 141 kts | 131° |
| 2026-04-26 10:09 | -5.01211 | 119.49579 | 1287 ft | 141 kts | 131° |
| 2026-04-26 10:09 | -5.01845 | 119.50323 | 1113 ft | 139 kts | 131° |
| 2026-04-26 10:09 | -5.02473 | 119.51060 | 942 ft | 138 kts | 130° |
| 2026-04-26 10:10 | -5.03106 | 119.51788 | 756 ft | 138 kts | 131° |
| 2026-04-26 10:10 | -5.03737 | 119.52514 | 591 ft | 138 kts | 130° |
| 2026-04-26 10:10 | -5.04352 | 119.53246 | 410 ft | 136 kts | 129° |
| 2026-04-26 10:10 | -5.04964 | 119.53972 | 227 ft | 137 kts | 129° |
| 2026-04-26 10:11 | -5.05576 | 119.54706 | 48 ft | 136 kts | 130° |
| 2026-04-26 10:11 | -5.06083 | 119.55302 | 46 ft | 71 kts | 130° |
| 2026-04-26 10:11 | -5.06334 | 119.55597 | 43 ft | 46 kts | 130° |
| 2026-04-26 10:11 | -5.06455 | 119.55740 | 43 ft | 13 kts | 135° |
| 2026-04-26 10:12 | -5.06560 | 119.55737 | 41 ft | 21 kts | 209° |
| 2026-04-26 10:12 | -5.06709 | 119.55655 | 41 ft | 27 kts | 211° |
| 2026-04-26 10:12 | -5.06774 | 119.55617 | 41 ft | 13 kts | 211° |
| 2026-04-26 10:12 | -5.06876 | 119.55556 | 40 ft | 21 kts | 210° |
| 2026-04-26 10:13 | -5.07026 | 119.55469 | 41 ft | 28 kts | 210° |
| 2026-04-26 10:13 | -5.07178 | 119.55382 | 40 ft | 21 kts | 210° |
| 2026-04-26 10:13 | -5.07327 | 119.55296 | 41 ft | 28 kts | 209° |
| 2026-04-26 10:13 | -5.07459 | 119.55220 | 41 ft | 17 kts | 210° |
| 2026-04-26 10:14 | -5.07567 | 119.55159 | 41 ft | 15 kts | 209° |
| 2026-04-26 10:14 | -5.07614 | 119.55077 | 41 ft | 15 kts | 285° |
| 2026-04-26 10:14 | -5.07582 | 119.54977 | 41 ft | 16 kts | 263° |
| 2026-04-26 10:14 | -5.07619 | 119.54904 | 40 ft | 12 kts | 215° |
| 2026-04-26 10:15 | -5.07685 | 119.54859 | 41 ft | 8 kts | 238° |
| 2026-04-26 10:15 | -5.07674 | 119.54823 | 39 ft | 6 kts | 298° |
| 2026-04-26 10:15 | -5.07661 | 119.54800 | 41 ft | 0 kts | 300° |